createdAt,value
2022-11-26T00:00:05.285Z,5.97
2022-11-26T00:01:05.241Z,5.80
2022-11-26T00:02:06.269Z,5.92
2022-11-26T00:03:05.385Z,5.77
2022-11-26T00:04:05.218Z,5.85
2022-11-26T00:05:05.252Z,5.76
2022-11-26T00:06:05.215Z,5.79
2022-11-26T00:07:05.201Z,5.82
2022-11-26T00:08:05.196Z,5.80
2022-11-26T00:09:05.184Z,5.83
2022-11-26T00:10:05.206Z,5.83
2022-11-26T00:11:05.167Z,5.95
2022-11-26T00:12:05.165Z,5.89
2022-11-26T00:13:05.150Z,5.92
2022-11-26T00:14:05.142Z,5.86
2022-11-26T00:15:05.166Z,5.77
2022-11-26T00:16:05.215Z,5.82
2022-11-26T00:17:05.173Z,5.77
2022-11-26T00:18:05.126Z,5.74
2022-11-26T00:19:05.119Z,5.68
2022-11-26T00:20:05.355Z,5.80
2022-11-26T00:21:05.094Z,5.71
2022-11-26T00:22:05.085Z,5.57
2022-11-26T00:23:05.069Z,5.65
2022-11-26T00:24:05.064Z,5.58
2022-11-26T00:25:05.058Z,5.36
2022-11-26T00:26:05.072Z,5.46
2022-11-26T00:27:06.043Z,5.31
2022-11-26T00:28:05.030Z,5.28
2022-11-26T00:29:05.022Z,5.21
2022-11-26T00:30:05.017Z,5.25
2022-11-26T00:31:05.042Z,5.22
2022-11-26T00:32:05.036Z,5.19
2022-11-26T00:33:04.988Z,5.31
2022-11-26T00:34:04.983Z,5.28
2022-11-26T00:35:04.966Z,5.32
2022-11-26T00:36:04.992Z,5.39
2022-11-26T00:37:04.956Z,5.33
2022-11-26T00:38:04.948Z,5.39
2022-11-26T00:39:04.938Z,5.29
2022-11-26T00:40:04.943Z,5.33
2022-11-26T00:41:04.953Z,5.50
2022-11-26T00:42:04.913Z,5.49
2022-11-26T00:43:04.928Z,5.59
2022-11-26T00:44:04.901Z,5.54
2022-11-26T00:45:04.886Z,5.65
2022-11-26T00:46:05.114Z,5.65
2022-11-26T00:47:04.876Z,5.77
2022-11-26T00:48:04.868Z,5.62
2022-11-26T00:49:04.856Z,5.79
2022-11-26T00:50:04.857Z,5.90
2022-11-26T00:51:04.870Z,5.74
2022-11-26T00:52:04.829Z,5.71
2022-11-26T00:53:04.833Z,5.72
2022-11-26T00:54:04.828Z,5.77
2022-11-26T00:55:04.815Z,5.69
2022-11-26T00:56:04.829Z,5.80
2022-11-26T00:57:04.796Z,5.80
2022-11-26T00:58:04.785Z,5.85
2022-11-26T00:59:04.775Z,5.80
2022-11-26T01:00:04.777Z,5.80
2022-11-26T01:01:04.809Z,5.82
2022-11-26T01:02:04.838Z,5.79
2022-11-26T01:03:04.747Z,5.64
2022-11-26T01:04:04.736Z,5.74
2022-11-26T01:05:04.724Z,5.65
2022-11-26T01:06:04.750Z,5.72
2022-11-26T01:07:04.704Z,5.65
2022-11-26T01:08:04.699Z,5.65
2022-11-26T01:09:04.682Z,5.64
2022-11-26T01:10:05.677Z,5.51
2022-11-26T01:11:04.714Z,5.59
2022-11-26T01:12:04.674Z,5.50
2022-11-26T01:13:04.655Z,5.47
2022-11-26T01:14:04.668Z,5.43
2022-11-26T01:15:04.631Z,5.53
2022-11-26T01:16:04.764Z,5.53
2022-11-26T01:17:04.622Z,5.49
2022-11-26T01:18:04.617Z,5.54
2022-11-26T01:19:04.684Z,5.58
2022-11-26T01:20:04.602Z,5.54
2022-11-26T01:21:04.614Z,5.49
2022-11-26T01:22:04.579Z,5.53
2022-11-26T01:23:04.576Z,5.58
2022-11-26T01:24:04.579Z,5.49
2022-11-26T01:25:04.564Z,5.65
2022-11-26T01:26:06.608Z,5.50
2022-11-26T01:27:05.540Z,5.71
2022-11-26T01:28:04.533Z,5.68
2022-11-26T01:29:04.529Z,5.69
2022-11-26T01:30:04.514Z,5.72
2022-11-26T01:31:04.536Z,5.72
2022-11-26T01:32:04.581Z,5.72
2022-11-26T01:33:04.506Z,5.71
2022-11-26T01:34:04.490Z,5.74
2022-11-26T01:35:04.478Z,5.69
2022-11-26T01:36:04.490Z,5.76
2022-11-26T01:37:04.460Z,5.77
2022-11-26T01:38:04.463Z,5.72
2022-11-26T01:39:04.445Z,5.69
2022-11-26T01:40:04.433Z,5.65
2022-11-26T01:41:04.479Z,5.64
2022-11-26T01:42:04.405Z,5.64
2022-11-26T01:43:04.411Z,5.71
2022-11-26T01:44:04.397Z,5.67
2022-11-26T01:45:04.383Z,5.72
2022-11-26T01:46:04.428Z,5.58
2022-11-26T01:47:04.396Z,5.65
2022-11-26T01:48:04.359Z,5.71
2022-11-26T01:49:04.357Z,5.58
2022-11-26T01:50:04.344Z,5.62
2022-11-26T01:51:04.344Z,5.53
2022-11-26T01:52:04.455Z,5.57
2022-11-26T01:53:04.328Z,5.49
2022-11-26T01:54:04.312Z,5.39
2022-11-26T01:55:04.305Z,5.42
2022-11-26T01:56:04.295Z,5.36
2022-11-26T01:57:04.312Z,5.32
2022-11-26T01:58:04.273Z,5.31
2022-11-26T01:59:29.934Z,5.29
2022-11-26T02:00:04.275Z,5.29
2022-11-26T02:01:04.309Z,5.39
2022-11-26T02:02:04.307Z,5.33
2022-11-26T02:03:04.236Z,5.35
2022-11-26T02:04:04.230Z,5.47
2022-11-26T02:05:04.215Z,5.54
2022-11-26T02:06:04.209Z,5.57
2022-11-26T02:07:04.232Z,5.62
2022-11-26T02:08:04.188Z,5.85
2022-11-26T02:09:04.184Z,5.76
2022-11-26T02:10:04.172Z,5.79
2022-11-26T02:11:04.161Z,5.80
2022-11-26T02:12:04.189Z,5.94
2022-11-26T02:13:04.146Z,5.89
2022-11-26T02:14:04.137Z,5.90
2022-11-26T02:15:04.135Z,6.05
2022-11-26T02:16:04.214Z,6.07
2022-11-26T02:17:04.168Z,6.07
2022-11-26T02:18:04.112Z,6.18
2022-11-26T02:19:04.098Z,6.10
2022-11-26T02:20:04.096Z,6.11
2022-11-26T02:21:04.077Z,6.13
2022-11-26T02:22:05.110Z,6.13
2022-11-26T02:23:04.071Z,6.04
2022-11-26T02:24:04.057Z,6.05
2022-11-26T02:25:04.050Z,6.13
2022-11-26T02:26:04.044Z,6.11
2022-11-26T02:27:04.076Z,6.10
2022-11-26T02:28:04.030Z,6.07
2022-11-26T02:29:04.020Z,5.87
2022-11-26T02:30:04.014Z,5.92
2022-11-26T02:31:04.006Z,5.82
2022-11-26T02:32:04.073Z,5.94
2022-11-26T02:33:03.980Z,5.94
2022-11-26T02:34:03.980Z,5.85
2022-11-26T02:35:03.973Z,5.89
2022-11-26T02:36:03.962Z,5.86
2022-11-26T02:37:03.982Z,5.85
2022-11-26T02:38:03.947Z,5.82
2022-11-26T02:39:03.943Z,5.86
2022-11-26T02:40:03.925Z,5.76
2022-11-26T02:41:03.921Z,5.83
2022-11-26T02:42:03.940Z,5.77
2022-11-26T02:43:03.900Z,5.72
2022-11-26T02:44:03.897Z,5.72
2022-11-26T02:45:03.880Z,5.83
2022-11-26T02:46:03.951Z,5.62
2022-11-26T02:47:03.903Z,5.77
2022-11-26T02:48:03.867Z,5.72
2022-11-26T02:49:03.851Z,5.68
2022-11-26T02:50:03.843Z,5.74
2022-11-26T02:51:03.844Z,5.80
2022-11-26T02:52:03.862Z,5.72
2022-11-26T02:53:03.818Z,5.74
2022-11-26T02:54:03.816Z,5.77
2022-11-26T02:55:03.814Z,5.74
2022-11-26T02:56:03.794Z,5.74
2022-11-26T02:57:03.822Z,5.85
2022-11-26T02:58:03.782Z,5.76
2022-11-26T02:59:03.788Z,5.85
2022-11-26T03:00:03.764Z,5.86
2022-11-26T03:01:03.845Z,5.69
2022-11-26T03:02:03.747Z,5.76
2022-11-26T03:03:03.770Z,5.86
2022-11-26T03:04:03.772Z,5.79
2022-11-26T03:05:03.714Z,5.72
2022-11-26T03:06:03.710Z,5.72
2022-11-26T03:07:03.704Z,5.76
2022-11-26T03:08:03.727Z,5.82
2022-11-26T03:09:03.704Z,5.72
2022-11-26T03:10:03.679Z,5.71
2022-11-26T03:11:03.673Z,5.74
2022-11-26T03:12:03.770Z,5.77
2022-11-26T03:13:03.685Z,5.80
2022-11-26T03:14:03.647Z,5.74
2022-11-26T03:15:03.636Z,5.82
2022-11-26T03:16:03.711Z,5.69
2022-11-26T03:17:03.620Z,5.71
2022-11-26T03:18:03.646Z,5.64
2022-11-26T03:19:03.600Z,5.68
2022-11-26T03:20:03.599Z,5.77
2022-11-26T03:21:03.589Z,5.68
2022-11-26T03:22:03.579Z,5.69
2022-11-26T03:23:03.598Z,5.54
2022-11-26T03:24:03.574Z,5.58
2022-11-26T03:25:03.561Z,5.57
2022-11-26T03:26:03.538Z,5.49
2022-11-26T03:27:03.549Z,5.54
2022-11-26T03:28:03.579Z,5.44
2022-11-26T03:29:03.523Z,5.46
2022-11-26T03:30:03.517Z,5.35
2022-11-26T03:31:03.502Z,5.33
2022-11-26T03:32:03.577Z,5.31
2022-11-26T03:33:03.521Z,5.29
2022-11-26T03:34:03.485Z,5.29
2022-11-26T03:35:03.472Z,5.28
2022-11-26T03:37:47.820Z,5.16
2022-11-26T03:38:47.823Z,5.22
2022-11-26T03:39:47.814Z,5.26
2022-11-26T03:40:47.804Z,5.25
2022-11-26T03:41:47.791Z,5.22
2022-11-26T03:42:47.815Z,5.17
2022-11-26T03:43:47.772Z,5.03
2022-11-26T03:44:47.766Z,5.06
2022-11-26T03:45:47.821Z,4.98
2022-11-26T03:46:47.754Z,5.03
2022-11-26T03:47:47.771Z,4.95
2022-11-26T03:48:48.882Z,4.89
2022-11-26T03:49:48.870Z,4.92
2022-11-26T03:50:48.866Z,4.88
2022-11-26T03:51:48.848Z,4.90
2022-11-26T03:52:48.877Z,4.96
2022-11-26T03:53:48.842Z,4.90
2022-11-26T03:54:48.823Z,4.88
2022-11-26T03:55:48.818Z,4.79
2022-11-26T03:56:48.813Z,4.83
2022-11-26T03:57:48.849Z,4.92
2022-11-26T03:58:48.794Z,4.88
2022-11-26T03:59:48.792Z,4.83
2022-11-26T04:00:48.783Z,4.80
2022-11-26T04:01:48.825Z,4.73
2022-11-26T04:02:48.889Z,4.69
2022-11-26T04:03:48.771Z,4.64
2022-11-26T04:04:48.746Z,4.67
2022-11-26T04:05:48.730Z,4.67
2022-11-26T04:06:49.738Z,4.58
2022-11-26T04:07:48.804Z,4.49
2022-11-26T04:08:48.714Z,4.45
2022-11-26T04:09:48.709Z,4.41
2022-11-26T04:10:48.700Z,4.35
2022-11-26T04:11:48.693Z,4.38
2022-11-26T04:12:48.684Z,4.34
2022-11-26T04:13:48.703Z,4.34
2022-11-26T04:14:48.663Z,4.26
2022-11-26T04:15:48.654Z,4.22
2022-11-26T04:16:48.683Z,4.27
2022-11-26T04:17:48.640Z,4.19
2022-11-26T04:18:48.658Z,4.22
2022-11-26T04:19:48.627Z,4.13
2022-11-26T04:20:52.750Z,4.15
2022-11-26T04:21:49.609Z,4.09
2022-11-26T04:22:48.599Z,4.13
2022-11-26T04:23:48.620Z,4.01
2022-11-26T04:24:48.587Z,3.91
2022-11-26T04:25:48.570Z,4.00
2022-11-26T04:26:48.581Z,3.88
2022-11-26T04:27:48.560Z,3.94
2022-11-26T04:28:48.568Z,3.80
2022-11-26T04:29:48.540Z,3.84
2022-11-26T04:30:48.537Z,3.84
2022-11-26T04:31:48.594Z,3.77
2022-11-26T04:32:48.512Z,3.77
2022-11-26T04:33:48.542Z,3.77
2022-11-26T04:34:48.497Z,3.77
2022-11-26T04:35:48.488Z,3.74
2022-11-26T04:36:48.484Z,3.68
2022-11-26T04:37:48.472Z,3.65
2022-11-26T04:38:48.491Z,3.65
2022-11-26T04:39:48.458Z,3.70
2022-11-26T04:40:48.457Z,3.61
2022-11-26T04:41:48.438Z,3.59
2022-11-26T04:42:48.432Z,3.56
2022-11-26T04:43:48.455Z,3.55
2022-11-26T04:44:48.421Z,3.51
2022-11-26T04:45:48.426Z,3.51
2022-11-26T04:46:48.389Z,3.47
2022-11-26T04:47:48.384Z,3.47
2022-11-26T04:48:48.407Z,3.40
2022-11-26T04:49:48.370Z,3.33
2022-11-26T04:50:48.365Z,3.40
2022-11-26T04:51:48.367Z,3.36
2022-11-26T04:52:48.370Z,3.27
2022-11-26T04:53:48.360Z,3.25
2022-11-26T04:54:48.326Z,3.24
2022-11-26T04:55:48.314Z,3.19
2022-11-26T04:56:48.314Z,3.17
2022-11-26T04:57:48.298Z,3.19
2022-11-26T04:58:48.319Z,3.18
2022-11-26T04:59:48.286Z,3.19
2022-11-26T05:00:51.063Z,3.18
2022-11-26T05:01:49.265Z,3.10
2022-11-26T05:02:48.275Z,3.12
2022-11-26T05:03:48.273Z,3.06
2022-11-26T05:04:48.242Z,3.09
2022-11-26T05:05:48.240Z,3.03
2022-11-26T05:06:48.220Z,2.99
2022-11-26T05:07:48.241Z,2.89
2022-11-26T05:08:48.233Z,2.94
2022-11-26T05:09:48.196Z,3.00
2022-11-26T05:10:48.176Z,2.96
2022-11-26T05:11:48.184Z,2.99
2022-11-26T05:12:48.169Z,2.92
2022-11-26T05:13:48.188Z,2.88
2022-11-26T05:14:48.145Z,2.94
2022-11-26T05:15:48.139Z,2.85
2022-11-26T05:16:48.278Z,2.86
2022-11-26T05:17:48.127Z,2.73
2022-11-26T05:18:48.140Z,2.81
2022-11-26T05:19:48.108Z,2.99
2022-11-26T05:20:48.096Z,2.83
2022-11-26T05:21:48.087Z,2.97
2022-11-26T05:22:48.078Z,2.92
2022-11-26T05:23:48.106Z,2.97
2022-11-26T05:24:48.067Z,2.85
2022-11-26T05:25:48.057Z,2.86
2022-11-26T05:26:51.221Z,2.91
2022-11-26T05:27:49.037Z,2.85
2022-11-26T05:28:48.061Z,2.74
2022-11-26T05:29:48.018Z,2.85
2022-11-26T05:30:48.020Z,2.64
2022-11-26T05:31:48.034Z,2.85
2022-11-26T05:32:47.990Z,2.83
2022-11-26T05:33:48.012Z,2.79
2022-11-26T05:34:47.981Z,2.86
2022-11-26T05:35:47.967Z,2.83
2022-11-26T05:36:47.966Z,2.85
2022-11-26T05:37:47.951Z,2.91
2022-11-26T05:38:47.980Z,2.92
2022-11-26T05:39:47.933Z,2.82
2022-11-26T05:40:47.930Z,2.76
2022-11-26T05:41:47.916Z,2.96
2022-11-26T05:42:47.900Z,2.91
2022-11-26T05:43:47.928Z,2.88
2022-11-26T05:44:47.878Z,2.99
2022-11-26T05:45:48.921Z,2.97
2022-11-26T05:46:47.874Z,3.03
2022-11-26T05:47:47.875Z,2.88
2022-11-26T05:48:47.889Z,3.01
2022-11-26T05:49:47.861Z,2.97
2022-11-26T05:50:53.049Z,2.99
2022-11-26T05:51:49.831Z,2.81
2022-11-26T05:52:47.865Z,2.96
2022-11-26T05:53:47.845Z,2.86
2022-11-26T05:54:47.816Z,2.94
2022-11-26T05:55:47.793Z,2.89
2022-11-26T05:56:47.794Z,3.00
2022-11-26T05:57:47.786Z,2.94
2022-11-26T05:58:47.807Z,3.12
2022-11-26T05:59:47.777Z,2.99
2022-11-26T06:00:47.762Z,2.94
2022-11-26T06:01:47.805Z,2.89
2022-11-26T06:02:47.823Z,2.81
2022-11-26T06:03:47.854Z,2.92
2022-11-26T06:04:47.728Z,2.99
2022-11-26T06:05:48.723Z,2.97
2022-11-26T06:06:47.719Z,2.83
2022-11-26T06:07:47.762Z,2.85
2022-11-26T06:08:47.727Z,2.91
2022-11-26T06:09:47.691Z,2.86
2022-11-26T06:10:47.688Z,2.76
2022-11-26T06:11:47.671Z,2.76
2022-11-26T06:12:47.672Z,2.73
2022-11-26T06:13:47.686Z,2.78
2022-11-26T06:14:47.918Z,2.74
2022-11-26T06:15:47.646Z,2.67
2022-11-26T06:16:47.667Z,2.70
2022-11-26T06:17:47.632Z,2.65
2022-11-26T06:18:47.637Z,2.64
2022-11-26T06:19:47.607Z,2.70
2022-11-26T06:20:47.604Z,2.68
2022-11-26T06:21:47.589Z,2.81
2022-11-26T06:22:47.586Z,2.85
2022-11-26T06:23:54.509Z,2.88
2022-11-26T06:24:49.568Z,2.92
2022-11-26T06:25:47.550Z,2.81
2022-11-26T06:26:47.551Z,2.86
2022-11-26T06:27:47.544Z,2.89
2022-11-26T06:28:47.558Z,2.97
2022-11-26T06:29:47.522Z,3.00
2022-11-26T06:30:47.520Z,2.94
2022-11-26T06:31:47.634Z,3.03
2022-11-26T06:32:47.503Z,2.97
2022-11-26T06:33:47.491Z,2.97
2022-11-26T06:34:52.583Z,3.01
2022-11-26T06:35:49.478Z,3.01
2022-11-26T06:36:47.469Z,3.10
2022-11-26T06:37:47.468Z,3.17
2022-11-26T06:38:47.450Z,3.06
2022-11-26T06:39:47.472Z,3.12
2022-11-26T06:40:47.431Z,3.18
2022-11-26T06:41:47.429Z,3.24
2022-11-26T06:42:47.427Z,3.29
2022-11-26T06:43:47.405Z,3.27
2022-11-26T06:44:47.434Z,3.27
2022-11-26T06:45:47.473Z,3.41
2022-11-26T06:46:47.420Z,3.43
2022-11-26T06:47:47.382Z,3.46
2022-11-26T06:48:47.372Z,3.55
2022-11-26T06:49:47.400Z,3.58
2022-11-26T06:50:47.358Z,3.55
2022-11-26T06:51:47.345Z,3.56
2022-11-26T06:52:47.854Z,3.72
2022-11-26T06:53:47.335Z,3.73
2022-11-26T06:54:47.347Z,3.73
2022-11-26T06:55:47.320Z,3.80
2022-11-26T06:56:47.302Z,3.76
2022-11-26T06:57:47.306Z,3.91
2022-11-26T06:58:47.298Z,3.92
2022-11-26T06:59:47.307Z,4.01
2022-11-26T07:00:48.278Z,4.01
2022-11-26T07:01:47.326Z,4.05
2022-11-26T07:02:47.297Z,4.05
2022-11-26T07:03:47.245Z,3.98
2022-11-26T07:04:47.281Z,4.08
2022-11-26T07:05:47.249Z,4.18
2022-11-26T07:06:47.235Z,4.23
2022-11-26T07:07:47.338Z,4.16
2022-11-26T07:08:47.218Z,4.16
2022-11-26T07:09:47.243Z,4.22
2022-11-26T07:10:49.236Z,4.27
2022-11-26T07:11:48.180Z,4.15
2022-11-26T07:12:47.180Z,4.19
2022-11-26T07:13:47.181Z,4.20
2022-11-26T07:14:47.178Z,4.20
2022-11-26T07:15:47.257Z,4.31
2022-11-26T07:16:47.137Z,4.31
2022-11-26T07:17:47.142Z,4.28
2022-11-26T07:18:47.131Z,4.30
2022-11-26T07:19:47.141Z,4.23
2022-11-26T07:20:47.105Z,4.30
2022-11-26T07:21:47.112Z,4.34
2022-11-26T07:22:47.096Z,4.38
2022-11-26T07:23:47.081Z,4.40
2022-11-26T07:24:47.346Z,4.38
2022-11-26T07:26:01.582Z,4.35
2022-11-26T07:26:47.049Z,4.35
2022-11-26T07:27:47.047Z,4.41
2022-11-26T07:28:47.043Z,4.31
2022-11-26T07:29:47.059Z,4.30
2022-11-26T07:30:47.022Z,4.23
2022-11-26T07:31:47.079Z,4.19
2022-11-26T07:32:46.999Z,4.35
2022-11-26T07:33:46.995Z,4.31
2022-11-26T07:34:47.020Z,4.28
2022-11-26T07:35:46.981Z,4.34
2022-11-26T07:36:46.974Z,4.37
2022-11-26T07:37:46.967Z,4.30
2022-11-26T07:38:46.951Z,4.37
2022-11-26T07:39:46.981Z,4.37
2022-11-26T07:40:46.951Z,4.34
2022-11-26T07:41:46.925Z,4.40
2022-11-26T07:42:51.841Z,4.51
2022-11-26T07:43:48.900Z,4.53
2022-11-26T07:44:47.925Z,4.58
2022-11-26T07:45:46.933Z,4.64
2022-11-26T07:46:46.884Z,4.58
2022-11-26T07:47:46.881Z,4.63
2022-11-26T07:48:46.870Z,4.77
2022-11-26T07:49:46.891Z,4.64
2022-11-26T07:50:46.855Z,4.71
2022-11-26T07:51:46.849Z,4.83
2022-11-26T07:52:46.859Z,4.88
2022-11-26T07:53:46.859Z,4.89
2022-11-26T07:54:46.850Z,4.88
2022-11-26T07:55:46.810Z,4.85
2022-11-26T07:56:46.804Z,4.93
2022-11-26T07:57:46.798Z,4.85
2022-11-26T07:58:46.791Z,4.92
2022-11-26T07:59:46.807Z,4.95
2022-11-26T08:00:49.714Z,4.80
2022-11-26T08:01:47.797Z,4.93
2022-11-26T08:02:46.778Z,4.98
2022-11-26T08:03:46.751Z,4.92
2022-11-26T08:04:46.764Z,4.85
2022-11-26T08:05:46.729Z,4.96
2022-11-26T08:06:46.726Z,4.89
2022-11-26T08:07:46.782Z,4.88
2022-11-26T08:08:46.702Z,4.90
2022-11-26T08:09:46.729Z,4.86
2022-11-26T08:10:46.691Z,4.90
2022-11-26T08:11:46.682Z,5.07
2022-11-26T08:12:46.671Z,5.06
2022-11-26T08:13:46.665Z,5.04
2022-11-26T08:14:46.711Z,5.08
2022-11-26T08:15:46.647Z,5.01
2022-11-26T08:16:46.706Z,5.01
2022-11-26T08:17:46.626Z,4.90
2022-11-26T08:18:46.610Z,4.92
2022-11-26T08:19:46.638Z,4.95
2022-11-26T08:20:46.602Z,4.98
2022-11-26T08:21:46.585Z,5.04
2022-11-26T08:22:46.589Z,5.17
2022-11-26T08:23:46.574Z,5.13
2022-11-26T08:24:46.584Z,5.19
2022-11-26T08:26:14.341Z,5.32
2022-11-26T08:26:48.547Z,5.22
2022-11-26T08:27:46.540Z,5.14
2022-11-26T08:28:46.527Z,5.10
2022-11-26T08:29:46.550Z,5.22
2022-11-26T08:30:46.512Z,5.14
2022-11-26T08:31:46.905Z,5.19
2022-11-26T08:32:46.489Z,5.13
2022-11-26T08:33:46.483Z,5.16
2022-11-26T08:34:46.505Z,5.11
2022-11-26T08:36:08.150Z,5.19
2022-11-26T08:36:48.458Z,5.24
2022-11-26T08:37:46.451Z,5.22
2022-11-26T08:38:47.444Z,5.28
2022-11-26T08:39:46.467Z,5.29
2022-11-26T08:40:46.427Z,5.25
2022-11-26T08:41:51.608Z,5.33
2022-11-26T08:42:48.404Z,5.35
2022-11-26T08:44:48.426Z,5.28
2022-11-26T08:45:46.456Z,5.36
2022-11-26T08:46:46.392Z,5.32
2022-11-26T08:47:46.367Z,5.25
2022-11-26T08:48:46.360Z,5.36
2022-11-26T08:49:46.392Z,5.42
2022-11-26T08:50:46.347Z,5.47
2022-11-26T08:51:46.346Z,5.43
2022-11-26T08:52:46.327Z,5.64
2022-11-26T08:53:46.317Z,5.71
2022-11-26T08:54:46.662Z,5.83
2022-11-26T08:55:59.608Z,5.90
2022-11-26T08:56:48.289Z,6.10
2022-11-26T08:57:46.287Z,6.21
2022-11-26T08:58:46.271Z,6.11
2022-11-26T08:59:46.302Z,6.10
2022-11-26T09:00:46.252Z,6.05
2022-11-26T09:01:46.326Z,6.15
2022-11-26T09:02:46.271Z,6.18
2022-11-26T09:03:46.233Z,6.03
2022-11-26T09:04:46.263Z,6.08
2022-11-26T09:05:46.228Z,6.13
2022-11-26T09:06:46.209Z,6.10
2022-11-26T09:07:49.056Z,6.01
2022-11-26T09:08:47.192Z,6.03
2022-11-26T09:09:46.178Z,6.10
2022-11-26T09:10:46.204Z,6.16
2022-11-26T09:11:46.178Z,6.13
2022-11-26T09:12:46.171Z,6.08
2022-11-26T09:13:46.145Z,6.16
2022-11-26T09:14:46.170Z,6.21
2022-11-26T09:15:46.174Z,6.24
2022-11-26T09:16:46.192Z,6.34
2022-11-26T09:17:46.113Z,6.41
2022-11-26T09:18:46.117Z,6.44
2022-11-26T09:19:46.109Z,6.47
2022-11-26T09:20:46.317Z,6.56
2022-11-26T09:21:46.092Z,6.47
2022-11-26T09:22:46.080Z,6.60
2022-11-26T09:23:46.074Z,6.63
2022-11-26T09:24:46.062Z,6.53
2022-11-26T09:25:46.244Z,6.55
2022-11-26T09:26:47.032Z,6.53
2022-11-26T09:27:47.034Z,6.48
2022-11-26T09:28:46.025Z,6.55
2022-11-26T09:29:46.024Z,6.57
2022-11-26T09:30:46.051Z,6.41
2022-11-26T09:32:15.429Z,6.45
2022-11-26T09:33:34.459Z,6.42
2022-11-26T09:33:45.982Z,6.49
2022-11-26T09:34:45.977Z,6.45
2022-11-26T09:35:45.997Z,6.47
2022-11-26T09:36:46.963Z,6.52
2022-11-26T09:37:51.226Z,6.48
2022-11-26T09:38:47.956Z,6.45
2022-11-26T09:39:45.938Z,6.53
2022-11-26T09:40:45.959Z,6.59
2022-11-26T09:41:45.914Z,6.59
2022-11-26T09:42:45.905Z,6.53
2022-11-26T09:43:47.296Z,6.42
2022-11-26T09:44:45.891Z,6.47
2022-11-26T09:45:45.975Z,6.56
2022-11-26T09:47:10.494Z,6.59
2022-11-26T09:47:47.862Z,6.56
2022-11-26T09:48:45.859Z,6.53
2022-11-26T09:49:45.850Z,6.66
2022-11-26T09:50:45.871Z,6.59
2022-11-26T09:51:45.831Z,6.65
2022-11-26T09:52:45.828Z,6.66
2022-11-26T09:53:45.809Z,6.70
2022-11-26T09:54:45.814Z,6.65
2022-11-26T09:55:45.829Z,6.71
2022-11-26T09:56:45.791Z,6.78
2022-11-26T09:57:45.779Z,6.77
2022-11-26T09:58:45.774Z,6.77
2022-11-26T09:59:45.770Z,6.92
2022-11-26T10:00:45.836Z,6.81
2022-11-26T10:01:45.838Z,6.93
2022-11-26T10:02:45.804Z,6.91
2022-11-26T10:03:45.730Z,6.96
2022-11-26T10:04:45.721Z,6.99
2022-11-26T10:05:45.750Z,6.96
2022-11-26T10:06:45.703Z,7.07
2022-11-26T10:07:45.802Z,7.05
2022-11-26T10:08:45.690Z,7.10
2022-11-26T10:09:45.677Z,6.99
2022-11-26T10:10:45.712Z,7.10
2022-11-26T10:11:45.673Z,7.14
2022-11-26T10:13:10.736Z,7.20
2022-11-26T10:13:47.668Z,7.05
2022-11-26T10:14:45.636Z,7.18
2022-11-26T10:15:45.659Z,7.20
2022-11-26T10:16:45.678Z,7.23
2022-11-26T10:17:45.621Z,7.21
2022-11-26T10:18:45.604Z,7.10
2022-11-26T10:19:45.595Z,7.16
2022-11-26T10:20:45.630Z,7.23
2022-11-26T10:21:58.612Z,7.32
2022-11-26T10:22:50.490Z,7.41
2022-11-26T10:23:46.569Z,7.44
2022-11-26T10:24:45.566Z,7.46
2022-11-26T10:25:45.745Z,7.41
2022-11-26T10:26:45.543Z,7.35
2022-11-26T10:27:45.545Z,7.42
2022-11-26T10:28:45.541Z,7.52
2022-11-26T10:29:45.522Z,7.53
2022-11-26T10:30:45.543Z,7.53
2022-11-26T10:31:45.603Z,7.54
2022-11-26T10:32:45.491Z,7.44
2022-11-26T10:33:46.490Z,7.46
2022-11-26T10:34:45.936Z,7.39
2022-11-26T10:35:45.475Z,7.38
2022-11-26T10:36:45.494Z,7.38
2022-11-26T10:37:45.454Z,7.44
2022-11-26T10:38:45.446Z,7.49
2022-11-26T10:39:45.431Z,7.50
2022-11-26T10:40:45.430Z,7.57
2022-11-26T10:41:45.448Z,7.64
2022-11-26T10:42:45.403Z,7.64
2022-11-26T10:43:45.402Z,7.59
2022-11-26T10:44:45.395Z,7.60
2022-11-26T10:45:45.393Z,7.68
2022-11-26T10:46:45.451Z,7.69
2022-11-26T10:47:45.363Z,7.69
2022-11-26T10:48:45.358Z,7.79
2022-11-26T10:49:45.349Z,7.86
2022-11-26T10:50:47.846Z,7.83
2022-11-26T10:51:46.359Z,7.79
2022-11-26T10:52:45.329Z,7.91
2022-11-26T10:53:45.311Z,7.93
2022-11-26T10:54:45.302Z,7.87
2022-11-26T10:55:45.308Z,7.86
2022-11-26T10:56:45.348Z,7.84
2022-11-26T10:57:45.281Z,7.78
2022-11-26T10:58:45.277Z,7.88
2022-11-26T10:59:45.264Z,7.78
2022-11-26T11:00:45.280Z,7.87
2022-11-26T11:01:45.308Z,7.94
2022-11-26T11:02:45.273Z,7.93
2022-11-26T11:04:07.167Z,7.88
2022-11-26T11:04:47.517Z,7.79
2022-11-26T11:05:45.213Z,7.93
2022-11-26T11:06:45.223Z,7.87
2022-11-26T11:07:45.279Z,7.96
2022-11-26T11:08:45.183Z,8.01
2022-11-26T11:09:45.179Z,7.78
2022-11-26T11:10:45.166Z,7.79
2022-11-26T11:11:45.193Z,7.94
2022-11-26T11:12:45.145Z,7.86
2022-11-26T11:13:45.171Z,7.91
2022-11-26T11:14:45.667Z,7.87
2022-11-26T11:15:45.125Z,8.02
2022-11-26T11:16:45.167Z,7.94
2022-11-26T11:17:45.126Z,7.97
2022-11-26T11:18:45.107Z,7.96
2022-11-26T11:19:45.092Z,8.01
2022-11-26T11:20:45.085Z,8.04
2022-11-26T11:21:48.158Z,8.11
2022-11-26T11:22:46.108Z,8.12
2022-11-26T11:24:09.692Z,8.04
2022-11-26T11:24:47.061Z,8.20
2022-11-26T11:25:45.040Z,8.18
2022-11-26T11:26:45.033Z,8.27
2022-11-26T11:27:45.054Z,8.29
2022-11-26T11:28:45.010Z,8.41
2022-11-26T11:29:45.006Z,8.49
2022-11-26T11:30:44.998Z,8.38
2022-11-26T11:31:45.055Z,8.49
2022-11-26T11:32:45.010Z,8.49
2022-11-26T11:33:44.982Z,8.34
2022-11-26T11:34:44.976Z,8.31
2022-11-26T11:35:44.954Z,8.39
2022-11-26T11:36:44.945Z,8.31
2022-11-26T11:37:44.983Z,8.42
2022-11-26T11:38:44.931Z,8.45
2022-11-26T11:39:44.922Z,8.47
2022-11-26T11:40:44.928Z,8.47
2022-11-26T11:41:44.912Z,8.39
2022-11-26T11:42:44.930Z,8.47
2022-11-26T11:43:44.889Z,8.47
2022-11-26T11:44:44.878Z,8.41
2022-11-26T11:45:49.981Z,8.42
2022-11-26T11:46:46.867Z,8.52
2022-11-26T11:47:44.876Z,8.60
2022-11-26T11:48:44.848Z,8.67
2022-11-26T11:49:44.821Z,8.67
2022-11-26T11:50:45.822Z,8.73
2022-11-26T11:51:44.817Z,8.67
2022-11-26T11:52:44.837Z,8.87
2022-11-26T11:53:44.798Z,8.87
2022-11-26T11:54:44.789Z,8.96
2022-11-26T11:55:44.783Z,8.98
2022-11-26T11:56:44.778Z,8.96
2022-11-26T11:57:44.796Z,8.95
2022-11-26T11:58:44.756Z,8.98
2022-11-26T11:59:44.746Z,9.06
2022-11-26T12:00:44.742Z,8.90
2022-11-26T12:01:44.791Z,9.10
2022-11-26T12:02:44.749Z,9.14
2022-11-26T12:03:44.716Z,9.10
2022-11-26T12:04:44.772Z,9.03
2022-11-26T12:05:44.701Z,9.08
2022-11-26T12:06:44.684Z,9.02
2022-11-26T12:07:44.800Z,8.95
2022-11-26T12:08:44.667Z,9.02
2022-11-26T12:09:44.661Z,9.00
2022-11-26T12:10:44.673Z,8.91
2022-11-26T12:11:44.648Z,8.95
2022-11-26T12:12:44.646Z,8.88
2022-11-26T12:13:44.668Z,8.81
2022-11-26T12:14:44.997Z,8.82
2022-11-26T12:15:44.609Z,8.81
2022-11-26T12:16:44.636Z,8.87
2022-11-26T12:17:44.589Z,8.88
2022-11-26T12:18:44.611Z,8.90
2022-11-26T12:19:44.583Z,8.95
2022-11-26T12:20:44.578Z,8.81
2022-11-26T12:21:44.559Z,8.87
2022-11-26T12:22:44.545Z,8.87
2022-11-26T12:23:44.571Z,8.88
2022-11-26T12:24:44.542Z,8.81
2022-11-26T12:25:44.525Z,8.81
2022-11-26T12:26:44.511Z,8.80
2022-11-26T12:27:44.501Z,8.85
2022-11-26T12:28:49.844Z,8.84
2022-11-26T12:29:46.490Z,8.87
2022-11-26T12:30:44.478Z,8.84
2022-11-26T12:31:44.519Z,8.69
2022-11-26T12:32:44.464Z,8.67
2022-11-26T12:33:44.485Z,8.66
2022-11-26T12:34:44.454Z,8.75
2022-11-26T12:35:44.437Z,8.90
2022-11-26T12:36:44.441Z,8.85
2022-11-26T12:37:45.421Z,8.82
2022-11-26T12:38:44.452Z,8.80
2022-11-26T12:39:47.965Z,8.87
2022-11-26T12:40:45.414Z,8.90
2022-11-26T12:41:44.400Z,8.85
2022-11-26T12:42:44.380Z,8.87
2022-11-26T12:43:44.401Z,8.85
2022-11-26T12:44:44.360Z,8.85
2022-11-26T12:45:44.389Z,8.88
2022-11-26T12:46:44.348Z,8.81
2022-11-26T12:47:44.347Z,8.87
2022-11-26T12:48:44.386Z,8.93
2022-11-26T12:49:44.319Z,8.84
2022-11-26T12:50:44.306Z,8.82
2022-11-26T12:51:44.293Z,8.81
2022-11-26T12:52:44.297Z,8.91
2022-11-26T12:53:44.320Z,8.87
2022-11-26T12:54:44.272Z,8.85
2022-11-26T12:55:44.265Z,8.93
2022-11-26T12:56:44.265Z,8.93
2022-11-26T12:57:44.239Z,8.90
2022-11-26T12:58:44.250Z,8.85
2022-11-26T12:59:44.279Z,8.84
2022-11-26T13:00:44.272Z,8.88
2022-11-26T13:01:44.218Z,8.85
2022-11-26T13:02:44.282Z,8.81
2022-11-26T13:03:44.241Z,8.84
2022-11-26T13:04:44.226Z,8.88
2022-11-26T13:05:48.615Z,8.85
2022-11-26T13:06:46.173Z,8.93
2022-11-26T13:07:44.195Z,9.02
2022-11-26T13:08:44.157Z,8.99
2022-11-26T13:09:44.184Z,8.95
2022-11-26T13:10:44.136Z,8.93
2022-11-26T13:11:44.141Z,8.90
2022-11-26T13:12:44.132Z,8.82
2022-11-26T13:13:44.116Z,8.96
2022-11-26T13:14:44.179Z,8.99
2022-11-26T13:15:44.103Z,8.87
2022-11-26T13:16:44.181Z,8.90
2022-11-26T13:17:44.081Z,8.93
2022-11-26T13:18:44.062Z,8.90
2022-11-26T13:19:44.117Z,8.96
2022-11-26T13:20:44.058Z,8.85